createdAt,value
2022-11-25T00:00:04.875Z,94526.91
2022-11-25T00:01:12.240Z,94520.59
2022-11-25T00:02:13.828Z,94521.50
2022-11-25T00:03:16.030Z,94525.44
2022-11-25T00:04:17.602Z,94520.59
2022-11-25T00:05:19.171Z,94526.91
2022-11-25T00:06:25.568Z,94531.00
2022-11-25T00:07:27.169Z,94532.50
2022-11-25T00:08:28.735Z,94526.91
2022-11-25T00:09:30.264Z,94528.41
2022-11-25T00:10:31.843Z,94528.41
2022-11-25T00:11:39.109Z,94538.63
2022-11-25T00:12:40.631Z,94535.47
2022-11-25T00:13:43.319Z,94535.47
2022-11-25T00:14:44.872Z,94547.41
2022-11-25T00:15:46.494Z,94542.56
2022-11-25T00:16:48.952Z,94548.16
2022-11-25T00:17:50.599Z,94542.56
2022-11-25T00:18:53.702Z,94544.06
2022-11-25T00:19:55.250Z,94558.59
2022-11-25T00:20:57.067Z,94537.00
2022-11-25T00:21:58.620Z,94551.16
2022-11-25T00:23:00.174Z,94547.41
2022-11-25T00:24:04.939Z,94553.75
2022-11-25T00:25:06.740Z,94548.16
2022-11-25T00:26:10.565Z,94552.22
2022-11-25T00:27:12.172Z,94546.09
2022-11-25T00:28:13.824Z,94553.75
2022-11-25T00:29:15.653Z,94550.19
2022-11-25T00:30:17.343Z,94547.94
2022-11-25T00:31:30.290Z,94545.72
2022-11-25T00:32:32.034Z,94555.03
2022-11-25T00:33:33.576Z,94550.75
2022-11-25T00:34:35.238Z,94556.31
2022-11-25T00:35:36.998Z,94554.84
2022-11-25T00:36:38.632Z,94556.31
2022-11-25T00:37:40.145Z,94550.75
2022-11-25T00:38:41.734Z,94547.75
2022-11-25T00:39:43.306Z,94564.69
2022-11-25T00:41:04.762Z,94556.31
2022-11-25T00:42:25.041Z,94559.31
2022-11-25T00:43:45.006Z,94552.22
2022-11-25T00:44:46.533Z,94553.75
2022-11-25T00:45:48.151Z,94536.25
2022-11-25T00:46:49.731Z,94546.84
2022-11-25T00:47:53.656Z,94545.16
2022-11-25T00:48:55.171Z,94550.75
2022-11-25T00:49:56.723Z,94549.44
2022-11-25T00:50:58.276Z,94545.91
2022-11-25T00:52:00.164Z,94541.06
2022-11-25T00:53:01.689Z,94543.84
2022-11-25T00:54:03.345Z,94555.03
2022-11-25T00:55:05.316Z,94549.44
2022-11-25T00:56:16.646Z,94550.94
2022-11-25T00:57:20.737Z,94553.00
2022-11-25T00:58:22.262Z,94552.22
2022-11-25T00:59:23.800Z,94548.91
2022-11-25T01:00:25.360Z,94552.22
2022-11-25T01:01:27.286Z,94545.91
2022-11-25T01:02:29.027Z,94549.44
2022-11-25T01:03:30.645Z,94564.16
2022-11-25T01:04:32.462Z,94550.94
2022-11-25T01:05:34.126Z,94554.84
2022-11-25T01:06:37.225Z,94552.22
2022-11-25T01:07:38.753Z,94562.66
2022-11-25T01:08:40.381Z,94550.75
2022-11-25T01:09:41.956Z,94556.31
2022-11-25T01:10:43.522Z,94561.16
2022-11-25T01:11:45.092Z,94548.50
2022-11-25T01:12:47.533Z,94543.66
2022-11-25T01:13:50.086Z,94553.34
2022-11-25T01:14:51.623Z,94550.00
2022-11-25T01:15:53.233Z,94550.00
2022-11-25T01:16:55.203Z,94550.75
2022-11-25T01:17:56.797Z,94548.69
2022-11-25T01:18:59.823Z,94550.75
2022-11-25T01:20:01.461Z,94544.41
2022-11-25T01:21:06.865Z,94549.03
2022-11-25T01:22:09.585Z,94546.63
2022-11-25T01:23:11.220Z,94551.47
2022-11-25T01:24:14.568Z,94546.47
2022-11-25T01:25:16.205Z,94554.84
2022-11-25T01:26:23.303Z,94545.16
2022-11-25T01:27:24.889Z,94536.78
2022-11-25T01:28:26.427Z,94546.47
2022-11-25T01:29:27.981Z,94530.44
2022-11-25T01:30:29.732Z,94536.38
2022-11-25T01:31:34.638Z,94541.22
2022-11-25T01:32:36.509Z,94536.38
2022-11-25T01:33:39.009Z,94528.00
2022-11-25T01:34:40.588Z,94538.44
2022-11-25T01:35:42.155Z,94527.28
2022-11-25T01:36:44.524Z,94537.69
2022-11-25T01:37:46.097Z,94527.28
2022-11-25T01:38:52.144Z,94530.63
2022-11-25T01:39:53.685Z,94528.00
2022-11-25T01:40:55.374Z,94513.31
2022-11-25T01:41:56.974Z,94511.25
2022-11-25T01:42:58.526Z,94511.06
2022-11-25T01:44:09.323Z,94512.16
2022-11-25T01:45:35.704Z,94506.59
2022-11-25T01:46:46.941Z,94512.34
2022-11-25T01:47:51.146Z,94506.97
2022-11-25T01:49:06.789Z,94503.81
2022-11-25T01:50:12.804Z,94508.28
2022-11-25T01:51:26.121Z,94498.22
2022-11-25T01:52:35.933Z,94499.69
2022-11-25T01:53:37.776Z,94497.66
2022-11-25T01:54:47.213Z,94495.41
2022-11-25T01:55:54.202Z,94495.59
2022-11-25T01:57:06.395Z,94501.19
2022-11-25T01:58:14.657Z,94494.69
2022-11-25T01:59:16.855Z,94491.53
2022-11-25T02:00:18.900Z,94496.91
2022-11-25T02:01:21.839Z,94500.66
2022-11-25T02:02:23.971Z,94506.78
2022-11-25T02:03:32.833Z,94502.28
2022-11-25T02:04:38.109Z,94502.69
2022-11-25T02:05:50.993Z,94513.44
2022-11-25T02:06:59.129Z,94513.66
2022-11-25T02:08:01.239Z,94513.88
2022-11-25T02:09:08.583Z,94513.44
2022-11-25T02:10:26.583Z,94510.47
2022-11-25T02:11:30.918Z,94513.44
2022-11-25T02:12:34.482Z,94514.97
2022-11-25T02:13:36.929Z,94520.34
2022-11-25T02:14:39.366Z,94527.41
2022-11-25T02:15:40.903Z,94520.53
2022-11-25T02:16:42.558Z,94517.53
2022-11-25T02:17:44.903Z,94518.84
2022-11-25T02:18:46.435Z,94521.81
2022-11-25T02:19:54.015Z,94514.75
2022-11-25T02:20:55.769Z,94523.88
2022-11-25T02:22:03.248Z,94524.44
2022-11-25T02:23:25.826Z,94520.50
2022-11-25T02:24:38.033Z,94525.72
2022-11-25T02:25:41.723Z,94526.13
2022-11-25T02:26:43.987Z,94527.41
2022-11-25T02:27:49.945Z,94527.22
2022-11-25T02:28:51.709Z,94529.44
2022-11-25T02:29:53.812Z,94528.72
2022-11-25T02:30:55.395Z,94520.16
2022-11-25T02:31:57.062Z,94524.22
2022-11-25T02:32:59.714Z,94531.31
2022-11-25T02:34:01.306Z,94528.53
2022-11-25T02:35:02.873Z,94532.81
2022-11-25T02:36:12.778Z,94533.91
2022-11-25T02:37:17.358Z,94520.91
2022-11-25T02:38:37.456Z,94537.25
2022-11-25T02:39:39.004Z,94532.06
2022-11-25T02:40:49.378Z,94528.31
2022-11-25T02:42:01.880Z,94532.59
2022-11-25T02:43:03.498Z,94524.22
2022-11-25T02:44:05.644Z,94529.81
2022-11-25T02:45:14.215Z,94523.28
2022-11-25T02:46:22.229Z,94540.97
2022-11-25T02:47:24.134Z,94538.56
2022-11-25T02:48:52.765Z,94521.63
2022-11-25T02:49:49.211Z,94541.38
2022-11-25T02:50:50.840Z,94539.88
2022-11-25T02:51:52.411Z,94532.81
2022-11-25T02:52:53.921Z,94532.81
2022-11-25T02:53:56.740Z,94538.38
2022-11-25T02:54:58.324Z,94542.66
2022-11-25T02:56:00.182Z,94550.66
2022-11-25T02:57:01.781Z,94545.06
2022-11-25T02:58:03.416Z,94548.81
2022-11-25T02:59:05.193Z,94548.06
2022-11-25T03:00:07.414Z,94549.56
2022-11-25T03:01:09.968Z,94551.38
2022-11-25T03:02:11.593Z,94550.84
2022-11-25T03:03:14.209Z,94545.81
2022-11-25T03:04:15.738Z,94546.56
2022-11-25T03:05:17.276Z,94557.72
2022-11-25T03:06:19.219Z,94549.34
2022-11-25T03:07:20.866Z,94552.13
2022-11-25T03:08:22.563Z,94551.38
2022-11-25T03:09:24.094Z,94560.72
2022-11-25T03:10:26.716Z,94553.66
2022-11-25T03:11:47.117Z,94556.97
2022-11-25T03:12:48.824Z,94557.72
2022-11-25T03:13:50.342Z,94553.66
2022-11-25T03:14:51.926Z,94561.81
2022-11-25T03:15:53.514Z,94560.31
2022-11-25T03:16:55.090Z,94555.47
2022-11-25T03:17:57.183Z,94561.81
2022-11-25T03:18:58.689Z,94549.34
2022-11-25T03:20:00.237Z,94555.47
2022-11-25T03:21:02.041Z,94560.31
2022-11-25T03:22:04.626Z,94556.22
2022-11-25T03:23:07.042Z,94561.81
2022-11-25T03:24:08.664Z,94563.28
2022-11-25T03:25:13.011Z,94562.03
2022-11-25T03:26:14.613Z,94564.81
2022-11-25T03:27:16.182Z,94563.84
2022-11-25T03:28:17.699Z,94570.41
2022-11-25T03:29:19.355Z,94570.41
2022-11-25T03:30:24.967Z,94572.97
2022-11-25T03:31:26.604Z,94571.16
2022-11-25T03:32:28.227Z,94566.09
2022-11-25T03:33:29.700Z,94577.81
2022-11-25T03:34:31.946Z,94572.22
2022-11-25T03:35:33.476Z,94571.66
2022-11-25T03:36:35.080Z,94575.78
2022-11-25T03:37:37.059Z,94572.97
2022-11-25T03:38:38.633Z,94575.78
2022-11-25T03:39:40.168Z,94572.97
2022-11-25T03:40:41.693Z,94577.81
2022-11-25T03:41:43.274Z,94580.06
2022-11-25T03:42:45.047Z,94570.19
2022-11-25T03:43:47.235Z,94577.47
2022-11-25T03:44:48.806Z,94576.72
2022-11-25T03:45:50.605Z,94578.78
2022-11-25T03:46:52.269Z,94577.47
2022-11-25T03:47:53.836Z,94575.41
2022-11-25T03:48:55.426Z,94586.03
2022-11-25T03:49:57.139Z,94584.53
2022-11-25T03:50:58.689Z,94584.53
2022-11-25T03:52:00.290Z,94588.63
2022-11-25T03:53:01.838Z,94584.00
2022-11-25T03:54:03.712Z,94586.81
2022-11-25T03:55:06.868Z,94588.28
2022-11-25T03:56:08.437Z,94584.75
2022-11-25T03:57:10.007Z,94587.53
2022-11-25T03:58:11.551Z,94587.34
2022-11-25T03:59:13.194Z,94596.44
2022-11-25T04:00:14.973Z,94594.41
2022-11-25T04:01:16.579Z,94596.44
2022-11-25T04:02:18.266Z,94604.28
2022-11-25T04:03:19.804Z,94597.00
2022-11-25T04:04:21.427Z,94601.28
2022-11-25T04:05:22.972Z,94597.19
2022-11-25T04:06:24.586Z,94607.63
2022-11-25T04:07:26.269Z,94600.00
2022-11-25T04:08:27.987Z,94608.91
2022-11-25T04:09:29.511Z,94600.75
2022-11-25T04:10:31.050Z,94606.13
2022-11-25T04:11:51.563Z,94607.63
2022-11-25T04:12:54.136Z,94608.34
2022-11-25T04:13:55.701Z,94604.09
2022-11-25T04:14:57.258Z,94611.16
2022-11-25T04:15:58.805Z,94611.16
2022-11-25T04:17:00.407Z,94612.47
2022-11-25T04:18:02.096Z,94609.66
2022-11-25T04:19:03.838Z,94609.47
2022-11-25T04:20:06.090Z,94618.78
2022-11-25T04:21:07.616Z,94616.00
2022-11-25T04:22:09.161Z,94618.78
2022-11-25T04:23:12.936Z,94611.72
2022-11-25T04:24:14.498Z,94620.84
2022-11-25T04:25:16.305Z,94620.09
2022-11-25T04:26:17.865Z,94617.28
2022-11-25T04:27:20.601Z,94614.31
2022-11-25T04:28:22.259Z,94611.72
2022-11-25T04:29:23.829Z,94621.38
2022-11-25T04:30:25.977Z,94620.66
2022-11-25T04:31:27.528Z,94627.72
2022-11-25T04:32:29.080Z,94623.63
2022-11-25T04:33:30.610Z,94623.44
2022-11-25T04:34:32.464Z,94624.72
2022-11-25T04:35:34.079Z,94630.50
2022-11-25T04:36:35.593Z,94627.72
2022-11-25T04:37:37.125Z,94638.88
2022-11-25T04:38:38.787Z,94629.75
2022-11-25T04:39:40.309Z,94626.22
2022-11-25T04:40:41.886Z,94632.56
2022-11-25T04:41:43.468Z,94630.69
2022-11-25T04:42:45.143Z,94636.28
2022-11-25T04:43:46.690Z,94633.31
2022-11-25T04:45:01.337Z,94637.41
2022-11-25T04:46:15.043Z,94631.47
2022-11-25T04:47:16.838Z,94639.84
2022-11-25T04:48:18.730Z,94632.75
2022-11-25T04:49:20.261Z,94633.69
2022-11-25T04:50:24.195Z,94635.34
2022-11-25T04:51:25.764Z,94645.97
2022-11-25T04:52:27.726Z,94643.16
2022-11-25T04:53:29.255Z,94638.13
2022-11-25T04:54:30.768Z,94644.47
2022-11-25T04:55:32.402Z,94640.19
2022-11-25T04:56:34.023Z,94650.59
2022-11-25T04:57:35.635Z,94647.03
2022-11-25T04:58:55.460Z,94652.63
2022-11-25T04:59:57.028Z,94655.97
2022-11-25T05:00:58.569Z,94662.31
2022-11-25T05:02:00.203Z,94662.31
2022-11-25T05:03:01.800Z,94664.91
2022-11-25T05:04:03.579Z,94667.69
2022-11-25T05:05:05.732Z,94668.97
2022-11-25T05:06:08.512Z,94671.00
2022-11-25T05:07:10.663Z,94677.34
2022-11-25T05:08:12.290Z,94673.81
2022-11-25T05:09:13.933Z,94674.56
2022-11-25T05:10:15.557Z,94681.44
2022-11-25T05:11:17.654Z,94679.94
2022-11-25T05:12:25.123Z,94680.47
2022-11-25T05:13:26.871Z,94681.25
2022-11-25T05:14:28.488Z,94684.22
2022-11-25T05:15:30.000Z,94682.75
2022-11-25T05:16:31.601Z,94693.91
2022-11-25T05:17:33.979Z,94693.16
2022-11-25T05:18:35.571Z,94683.28
2022-11-25T05:19:37.517Z,94702.81
2022-11-25T05:20:39.073Z,94699.28
2022-11-25T05:21:40.653Z,94702.81
2022-11-25T05:22:42.187Z,94709.16
2022-11-25T05:23:43.712Z,94709.16
2022-11-25T05:24:45.580Z,94706.91
2022-11-25T05:25:47.101Z,94702.81
2022-11-25T05:26:48.656Z,94711.94
2022-11-25T05:27:50.363Z,94716.75
2022-11-25T05:28:51.876Z,94709.91
2022-11-25T05:29:56.168Z,94715.28
2022-11-25T05:30:58.529Z,94720.31
2022-11-25T05:32:00.301Z,94716.00
2022-11-25T05:33:01.881Z,94725.91
2022-11-25T05:34:04.329Z,94725.13
2022-11-25T05:35:06.271Z,94729.22
2022-11-25T05:36:08.131Z,94726.44
2022-11-25T05:37:12.483Z,94724.94
2022-11-25T05:38:14.291Z,94731.50
2022-11-25T05:39:15.837Z,94732.97
2022-11-25T05:40:17.484Z,94738.34
2022-11-25T05:41:19.057Z,94737.59
2022-11-25T05:42:20.639Z,94741.13
2022-11-25T05:43:22.208Z,94741.88
2022-11-25T05:44:23.936Z,94742.66
2022-11-25T05:45:25.449Z,94747.47
2022-11-25T05:46:27.095Z,94750.81
2022-11-25T05:47:28.763Z,94745.97
2022-11-25T05:48:30.276Z,94751.56
2022-11-25T05:49:31.801Z,94752.09
2022-11-25T05:50:33.340Z,94751.56
2022-11-25T05:51:34.915Z,94744.47
2022-11-25T05:52:36.455Z,94747.81
2022-11-25T05:53:38.044Z,94753.41
2022-11-25T05:54:39.578Z,94755.66
2022-11-25T05:55:41.163Z,94754.16
2022-11-25T05:56:42.820Z,94750.81
2022-11-25T05:57:44.386Z,94748.56
2022-11-25T05:58:46.352Z,94756.38
2022-11-25T05:59:47.907Z,94753.59
2022-11-25T06:00:49.629Z,94759.19
2022-11-25T06:01:53.693Z,94759.00
2022-11-25T06:02:55.418Z,94753.59
2022-11-25T06:04:03.926Z,94759.00
2022-11-25T06:05:05.985Z,94769.78
2022-11-25T06:06:08.260Z,94764.97
2022-11-25T06:07:09.847Z,94766.25
2022-11-25T06:08:11.616Z,94766.25
2022-11-25T06:09:13.293Z,94771.31
2022-11-25T06:10:16.392Z,94764.97
2022-11-25T06:11:19.820Z,94763.28
2022-11-25T06:12:22.281Z,94762.72
2022-11-25T06:13:24.072Z,94767.56
2022-11-25T06:14:25.587Z,94767.56
2022-11-25T06:15:27.124Z,94769.03
2022-11-25T06:16:28.815Z,94769.03
2022-11-25T06:17:30.565Z,94776.16
2022-11-25T06:18:32.065Z,94773.13
2022-11-25T06:19:33.639Z,94771.66
2022-11-25T06:20:35.538Z,94782.25
2022-11-25T06:21:37.127Z,94788.41
2022-11-25T06:22:38.734Z,94782.06
2022-11-25T06:23:40.726Z,94782.81
2022-11-25T06:24:42.328Z,94789.88
2022-11-25T06:25:43.849Z,94787.09
2022-11-25T06:26:45.361Z,94789.69
2022-11-25T06:28:11.414Z,94794.16
2022-11-25T06:29:08.554Z,94794.38
2022-11-25T06:30:10.529Z,94804.81
2022-11-25T06:31:18.075Z,94801.06
2022-11-25T06:32:19.597Z,94802.00
2022-11-25T06:33:21.149Z,94804.06
2022-11-25T06:34:23.039Z,94804.06
2022-11-25T06:35:24.599Z,94812.22
2022-11-25T06:36:26.209Z,94805.34
2022-11-25T06:37:27.718Z,94822.09
2022-11-25T06:38:29.387Z,94811.47
2022-11-25T06:39:30.920Z,94805.34
2022-11-25T06:40:33.206Z,94820.03
2022-11-25T06:41:34.744Z,94813.72
2022-11-25T06:42:38.602Z,94814.44
2022-11-25T06:43:40.945Z,94814.44
2022-11-25T06:44:42.578Z,94813.94
2022-11-25T06:45:44.130Z,94809.66
2022-11-25T06:46:45.706Z,94811.13
2022-11-25T06:47:47.315Z,94812.63
2022-11-25T06:48:48.876Z,94812.84
2022-11-25T06:49:50.452Z,94816.38
2022-11-25T06:51:03.328Z,94814.44
2022-11-25T06:52:05.008Z,94816.91
2022-11-25T06:53:06.517Z,94822.72
2022-11-25T06:54:08.630Z,94818.44
2022-11-25T06:55:10.325Z,94819.69
2022-11-25T06:56:19.975Z,94826.38
2022-11-25T06:57:21.522Z,94823.78
2022-11-25T06:58:35.307Z,94819.69
2022-11-25T06:59:37.757Z,94821.97
2022-11-25T07:00:39.331Z,94832.38
2022-11-25T07:01:40.960Z,94832.91
2022-11-25T07:02:48.044Z,94827.88
2022-11-25T07:03:52.894Z,94830.13
2022-11-25T07:04:54.445Z,94829.38
2022-11-25T07:05:58.135Z,94826.81
2022-11-25T07:06:59.688Z,94823.28
2022-11-25T07:08:01.404Z,94829.38
2022-11-25T07:09:04.094Z,94829.38
2022-11-25T07:10:06.413Z,94827.34
2022-11-25T07:11:16.133Z,94833.47
2022-11-25T07:12:17.727Z,94837.22
2022-11-25T07:13:21.331Z,94821.97
2022-11-25T07:14:22.972Z,94839.47
2022-11-25T07:15:24.481Z,94839.47
2022-11-25T07:16:26.509Z,94840.97
2022-11-25T07:17:28.148Z,94840.97
2022-11-25T07:18:34.184Z,94841.50
2022-11-25T07:19:35.811Z,94843.97
2022-11-25T07:20:37.361Z,94843.22
2022-11-25T07:21:39.501Z,94842.44
2022-11-25T07:22:41.054Z,94831.50
2022-11-25T07:23:44.720Z,94842.66
2022-11-25T07:24:46.229Z,94846.94
2022-11-25T07:25:47.818Z,94841.38
2022-11-25T07:26:49.388Z,94841.19
2022-11-25T07:27:50.990Z,94851.03
2022-11-25T07:28:54.168Z,94848.25
2022-11-25T07:30:19.119Z,94845.47
2022-11-25T07:31:24.482Z,94848.44
2022-11-25T07:32:29.018Z,94842.53
2022-11-25T07:33:30.614Z,94851.47
2022-11-25T07:34:32.287Z,94849.97
2022-11-25T07:35:34.087Z,94848.66
2022-11-25T07:36:36.223Z,94849.97
2022-11-25T07:37:37.822Z,94845.13
2022-11-25T07:38:45.111Z,94847.91
2022-11-25T07:39:48.188Z,94851.47
2022-11-25T07:40:50.719Z,94847.38
2022-11-25T07:41:53.824Z,94855.75
2022-11-25T07:42:55.390Z,94852.22
2022-11-25T07:43:59.827Z,94849.41
2022-11-25T07:45:01.396Z,94854.47
2022-11-25T07:46:26.538Z,94857.03
2022-11-25T07:47:28.761Z,94857.25
2022-11-25T07:48:30.328Z,94861.56
2022-11-25T07:49:31.901Z,94854.47
2022-11-25T07:50:33.504Z,94853.19
2022-11-25T07:51:39.527Z,94851.88
2022-11-25T07:52:41.201Z,94863.03
2022-11-25T07:53:42.797Z,94856.16
2022-11-25T07:54:44.390Z,94863.03
2022-11-25T07:55:45.949Z,94862.50
2022-11-25T07:56:48.588Z,94863.78
2022-11-25T07:57:50.106Z,94860.25
2022-11-25T07:58:51.681Z,94867.13
2022-11-25T07:59:53.243Z,94867.13
2022-11-25T08:00:55.002Z,94861.56
2022-11-25T08:01:56.814Z,94866.56
2022-11-25T08:02:58.430Z,94863.78
2022-11-25T08:04:00.048Z,94870.13
2022-11-25T08:05:01.606Z,94873.13
2022-11-25T08:06:04.876Z,94875.94
2022-11-25T08:07:06.448Z,94872.38
2022-11-25T08:08:08.131Z,94870.88
2022-11-25T08:09:12.296Z,94870.88
2022-11-25T08:10:13.844Z,94871.84
2022-11-25T08:11:21.686Z,94878.16
2022-11-25T08:12:23.326Z,94869.03
2022-11-25T08:13:25.316Z,94875.38
2022-11-25T08:14:26.936Z,94876.13
2022-11-25T08:15:28.446Z,94872.56
2022-11-25T08:16:33.724Z,94878.72
2022-11-25T08:17:35.475Z,94876.88
2022-11-25T08:18:37.074Z,94875.38
2022-11-25T08:19:40.195Z,94876.44
2022-11-25T08:20:42.069Z,94878.72
2022-11-25T08:21:43.778Z,94878.50
2022-11-25T08:22:45.336Z,94871.63
2022-11-25T08:23:52.446Z,94880.22
2022-11-25T08:24:54.048Z,94879.47
2022-11-25T08:25:55.713Z,94888.59
2022-11-25T08:26:58.757Z,94885.03
2022-11-25T08:28:00.988Z,94881.28
2022-11-25T08:29:04.336Z,94882.03
2022-11-25T08:30:06.805Z,94889.66
2022-11-25T08:31:12.654Z,94884.63
2022-11-25T08:32:14.237Z,94881.28
2022-11-25T08:33:15.990Z,94881.28
2022-11-25T08:34:24.107Z,94880.34
2022-11-25T08:35:25.693Z,94880.00
2022-11-25T08:36:29.080Z,94884.09
2022-11-25T08:37:31.991Z,94878.50
2022-11-25T08:38:34.107Z,94881.28
2022-11-25T08:39:51.716Z,94881.84
2022-11-25T08:40:55.913Z,94886.88
2022-11-25T08:41:57.462Z,94890.97
2022-11-25T08:42:59.433Z,94889.47
2022-11-25T08:44:04.070Z,94882.38
2022-11-25T08:45:06.668Z,94888.72
2022-11-25T08:46:14.102Z,94880.88
2022-11-25T08:47:15.696Z,94883.88
2022-11-25T08:48:19.416Z,94882.38
2022-11-25T08:49:22.140Z,94880.34
2022-11-25T08:50:25.022Z,94887.97
2022-11-25T08:51:30.045Z,94883.66
2022-11-25T08:52:31.572Z,94880.34
2022-11-25T08:53:33.169Z,94881.63
2022-11-25T08:54:34.731Z,94887.75
2022-11-25T08:55:38.635Z,94892.59
2022-11-25T08:56:41.409Z,94884.97
2022-11-25T08:57:43.126Z,94889.25
2022-11-25T08:58:44.763Z,94893.56
2022-11-25T08:59:46.501Z,94889.47
2022-11-25T09:00:48.048Z,94895.06
2022-11-25T09:01:49.668Z,94885.94
2022-11-25T09:02:51.353Z,94883.13
2022-11-25T09:03:55.606Z,94887.97
2022-11-25T09:04:57.176Z,94893.75
2022-11-25T09:05:58.809Z,94888.72
2022-11-25T09:07:00.755Z,94882.38
2022-11-25T09:08:04.130Z,94883.88
2022-11-25T09:09:06.142Z,94892.44
2022-11-25T09:10:10.513Z,94888.16
2022-11-25T09:11:12.238Z,94886.88
2022-11-25T09:12:13.853Z,94891.72
2022-11-25T09:13:15.505Z,94891.19
2022-11-25T09:14:17.211Z,94893.97
2022-11-25T09:15:18.787Z,94892.44
2022-11-25T09:16:21.433Z,94888.41
2022-11-25T09:17:23.125Z,94893.19
2022-11-25T09:18:26.301Z,94885.38
2022-11-25T09:19:28.588Z,94892.44
2022-11-25T09:20:31.997Z,94892.44
2022-11-25T09:21:33.558Z,94886.88
2022-11-25T09:22:35.141Z,94890.97
2022-11-25T09:23:38.696Z,94889.88
2022-11-25T09:24:41.726Z,94892.44
2022-11-25T09:25:51.360Z,94890.00
2022-11-25T09:26:52.935Z,94890.63
2022-11-25T09:27:55.999Z,94897.50
2022-11-25T09:28:58.073Z,94897.72
2022-11-25T09:29:59.576Z,94898.25
2022-11-25T09:31:07.786Z,94896.00
2022-11-25T09:32:09.329Z,94891.38
2022-11-25T09:33:10.858Z,94893.44
2022-11-25T09:34:12.521Z,94896.22
2022-11-25T09:35:14.097Z,94896.22
2022-11-25T09:36:17.894Z,94895.25
2022-11-25T09:37:19.405Z,94890.63
2022-11-25T09:38:20.939Z,94895.47
2022-11-25T09:39:23.537Z,94889.88
2022-11-25T09:40:48.384Z,94890.78
2022-11-25T09:42:20.760Z,94895.47
2022-11-25T09:44:14.905Z,94896.34
2022-11-25T09:45:46.389Z,94901.94
2022-11-25T09:46:56.915Z,94896.78
2022-11-25T09:48:13.298Z,94893.56
2022-11-25T09:49:28.866Z,94899.34
2022-11-25T09:50:48.767Z,94893.19
2022-11-25T09:52:06.290Z,94887.19
2022-11-25T09:53:38.933Z,94909.53
2022-11-25T09:55:02.928Z,94883.88
2022-11-25T09:56:12.381Z,94897.72
2022-11-25T09:57:42.896Z,94896.53
2022-11-25T09:58:51.857Z,94892.88
2022-11-25T10:00:03.052Z,94889.13
2022-11-25T10:01:07.597Z,94892.88
2022-11-25T10:02:20.383Z,94903.63
2022-11-25T10:03:47.397Z,94895.81
2022-11-25T10:04:54.749Z,94895.47
2022-11-25T10:06:08.522Z,94889.66
2022-11-25T10:07:18.837Z,94901.06
2022-11-25T10:08:31.892Z,94897.28
2022-11-25T10:09:35.919Z,94905.56
2022-11-25T10:10:47.709Z,94899.56
2022-11-25T10:12:01.422Z,94899.34
2022-11-25T10:13:05.602Z,94901.81
2022-11-25T10:14:25.293Z,94902.13
2022-11-25T10:15:36.665Z,94897.19
2022-11-25T10:16:38.557Z,94894.41
2022-11-25T10:17:44.315Z,94892.88
2022-11-25T10:18:59.367Z,94907.16
2022-11-25T10:20:17.188Z,94889.88
2022-11-25T10:21:18.770Z,94896.22
2022-11-25T10:22:25.738Z,94895.06
2022-11-25T10:23:33.943Z,94892.44
2022-11-25T10:24:40.969Z,94891.38
2022-11-25T10:25:48.295Z,94898.03
2022-11-25T10:26:57.645Z,94887.63
2022-11-25T10:28:00.375Z,94891.38
2022-11-25T10:29:13.837Z,94890.22
2022-11-25T10:30:21.818Z,94895.47
2022-11-25T10:31:36.262Z,94890.97
2022-11-25T10:32:46.265Z,94888.72
2022-11-25T10:33:54.721Z,94892.25
2022-11-25T10:35:05.364Z,94902.88
2022-11-25T10:36:14.383Z,94895.47
2022-11-25T10:37:27.153Z,94898.03
2022-11-25T10:39:07.637Z,94904.38
2022-11-25T10:40:16.839Z,94899.22
2022-11-25T10:41:24.130Z,94888.06
2022-11-25T10:42:27.894Z,94889.56
2022-11-25T10:43:31.913Z,94883.44
2022-11-25T10:44:36.111Z,94903.75
2022-11-25T10:46:09.697Z,94898.47
2022-11-25T10:47:29.381Z,94891.38
2022-11-25T10:48:44.153Z,94898.03
2022-11-25T10:49:57.976Z,94896.97
2022-11-25T10:50:59.522Z,94888.06
2022-11-25T10:52:01.109Z,94899.22
2022-11-25T10:53:04.720Z,94899.97
2022-11-25T10:54:08.997Z,94898.69
2022-11-25T10:55:24.291Z,94899.56
2022-11-25T10:56:25.937Z,94903.00
2022-11-25T10:57:29.742Z,94908.06
2022-11-25T10:58:34.079Z,94911.59
2022-11-25T10:59:38.768Z,94908.56
2022-11-25T11:00:40.348Z,94904.47
2022-11-25T11:01:42.073Z,94908.56
2022-11-25T11:02:48.324Z,94908.56
2022-11-25T11:04:02.681Z,94912.63
2022-11-25T11:05:10.430Z,94913.38
2022-11-25T11:06:32.232Z,94905.56
2022-11-25T11:07:39.136Z,94914.59
2022-11-25T11:08:41.259Z,94909.00
2022-11-25T11:09:42.822Z,94916.84
2022-11-25T11:10:44.814Z,94917.38
2022-11-25T11:11:50.421Z,94914.59
2022-11-25T11:12:55.630Z,94919.41
2022-11-25T11:14:13.773Z,94923.81
2022-11-25T11:15:21.286Z,94928.34
2022-11-25T11:16:36.242Z,94922.75
2022-11-25T11:17:37.849Z,94924.66
2022-11-25T11:18:41.599Z,94921.66
2022-11-25T11:19:43.201Z,94923.19
2022-11-25T11:20:48.286Z,94925.22
2022-11-25T11:21:51.296Z,94921.66
2022-11-25T11:23:12.591Z,94916.44
2022-11-25T11:24:38.020Z,94917.91
2022-11-25T11:25:54.394Z,94921.66
2022-11-25T11:27:07.061Z,94925.75
2022-11-25T11:28:35.009Z,94922.00
2022-11-25T11:29:36.672Z,94924.91
2022-11-25T11:30:55.598Z,94929.84
2022-11-25T11:32:03.693Z,94925.97
2022-11-25T11:33:27.060Z,94924.66
2022-11-25T11:35:06.346Z,94928.75
2022-11-25T11:36:14.158Z,94926.38
2022-11-25T11:37:57.215Z,94914.81
2022-11-25T11:39:21.512Z,94917.59
2022-11-25T11:40:36.200Z,94930.59
2022-11-25T11:42:04.503Z,94927.78
2022-11-25T11:43:05.953Z,94931.75
2022-11-25T11:44:30.168Z,94933.94
2022-11-25T11:46:00.087Z,94938.78
2022-11-25T11:47:19.353Z,94936.91
2022-11-25T11:48:20.939Z,94931.56
2022-11-25T11:49:43.436Z,94939.53
2022-11-25T11:50:51.377Z,94926.50
2022-11-25T11:52:01.891Z,94925.00
2022-11-25T11:53:30.908Z,94918.97
2022-11-25T11:54:46.537Z,94930.91
2022-11-25T11:56:19.063Z,94931.66
2022-11-25T11:57:47.080Z,94936.50
2022-11-25T11:59:00.624Z,94925.75
2022-11-25T12:00:22.932Z,94919.22
2022-11-25T12:01:48.605Z,94917.19
2022-11-25T12:03:05.637Z,94922.75
2022-11-25T12:04:27.753Z,94921.25
2022-11-25T12:05:34.079Z,94932.81
2022-11-25T12:06:39.050Z,94923.94
2022-11-25T12:08:13.462Z,94922.00
2022-11-25T12:09:20.396Z,94923.94
2022-11-25T12:10:24.636Z,94928.03
2022-11-25T12:11:35.642Z,94915.31
2022-11-25T12:13:06.482Z,94920.16
2022-11-25T12:14:33.625Z,94931.75
2022-11-25T12:16:09.074Z,94922.63
2022-11-25T12:17:35.448Z,94929.19
2022-11-25T12:19:16.001Z,94939.19
2022-11-25T12:20:21.674Z,94935.09
2022-11-25T12:21:49.316Z,94930.25
2022-11-25T12:23:02.002Z,94925.22
2022-11-25T12:24:09.268Z,94923.94
2022-11-25T12:25:19.213Z,94930.81
2022-11-25T12:27:00.084Z,94929.84
2022-11-25T12:28:07.200Z,94935.50
2022-11-25T12:29:36.346Z,94939.53
2022-11-25T12:30:46.725Z,94940.88
2022-11-25T12:32:01.247Z,94940.13
2022-11-25T12:33:29.528Z,94934.34
2022-11-25T12:34:55.088Z,94937.13
2022-11-25T12:36:05.875Z,94940.34
2022-11-25T12:37:16.181Z,94941.44
2022-11-25T12:38:33.183Z,94942.50
2022-11-25T12:39:45.610Z,94938.09
2022-11-25T12:41:10.408Z,94926.16
2022-11-25T12:42:25.472Z,94930.25
2022-11-25T12:43:42.692Z,94928.03
2022-11-25T12:44:57.248Z,94928.75
2022-11-25T12:46:07.677Z,94930.81
2022-11-25T12:47:12.133Z,94923.19
2022-11-25T12:48:17.323Z,94916.28
2022-11-25T12:49:30.252Z,94923.19
2022-11-25T12:51:09.767Z,94917.38